Time;durP1;ratioP1;P1;durP2;ratioP2;P2;SDS_P1;SDS_P2;PMS_P1;PMS_P2;Temp;Humidity;BMP_temperature;BMP_pressure;BME280_temperature;BME280_humidity;BME280_pressure;Samples;Min_cycle;Max_cycle;Signal;HPM_P1;HPM_P2
2022/09/16 00:01:11;;;;;;;;;3.00;2.33;;;;;19.94;58.73;97442.09;4969705;28;102302;-91
2022/09/16 00:03:39;;;;;;;;;2.67;2.33;;;;;19.93;58.95;97444.03;4966960;28;102309;-92
2022/09/16 00:06:06;;;;;;;;;1.00;0.33;;;;;19.95;58.98;97440.97;4947166;28;104318;-90
2022/09/16 00:08:33;;;;;;;;;2.67;1.67;;;;;19.93;58.79;97438.53;4969094;28;102048;-90
2022/09/16 00:11:01;;;;;;;;;2.33;1.67;;;;;19.94;58.62;97447.59;4963910;28;102162;-91
2022/09/16 00:13:28;;;;;;;;;2.00;2.00;;;;;19.95;58.58;97449.22;4941528;28;102598;-91
2022/09/16 00:15:55;;;;;;;;;2.00;1.67;;;;;19.93;58.76;97449.53;4969861;28;104027;-91
2022/09/16 00:18:22;;;;;;;;;1.67;1.67;;;;;19.92;58.71;97452.53;4968191;28;102336;-91
2022/09/16 00:20:50;;;;;;;;;2.67;2.33;;;;;19.91;58.70;97454.47;4946876;28;102638;-91
2022/09/16 00:23:17;;;;;;;;;3.00;2.67;;;;;19.90;59.09;97449.28;4963304;28;102520;-91
2022/09/16 00:25:48;;;;;;;;;3.33;1.67;;;;;19.89;58.80;97453.13;4962568;28;104090;-91
2022/09/16 00:28:15;;;;;;;;;2.33;2.00;;;;;19.86;59.01;97445.47;4960119;28;102413;-91
2022/09/16 00:30:42;;;;;;;;;2.00;2.00;;;;;19.91;59.04;97453.63;4965831;28;102479;-90
2022/09/16 00:33:09;;;;;;;;;2.67;2.67;;;;;19.90;59.04;97460.25;4966112;28;102403;-91
2022/09/16 00:35:36;;;;;;;;;1.67;1.67;;;;;19.90;58.88;97465.75;4963738;28;104067;-90
2022/09/16 00:38:03;;;;;;;;;2.67;2.67;;;;;19.88;58.92;97455.06;4969703;28;102204;-91
2022/09/16 00:40:30;;;;;;;;;1.67;1.67;;;;;19.91;58.75;97461.88;4958192;28;102066;-91
2022/09/16 00:42:59;;;;;;;;;0.67;0.67;;;;;19.91;58.89;97454.47;4969322;28;102213;-91
2022/09/16 00:45:30;;;;;;;;;2.00;1.67;;;;;19.92;58.78;97455.28;4962492;28;104494;-91
2022/09/16 00:48:00;;;;;;;;;2.67;1.67;;;;;19.90;58.83;97449.28;4956397;28;102297;-91
2022/09/16 00:50:53;;;;;;;;;1.67;1.67;;;;;19.91;58.50;97453.63;4970765;28;102409;-91
2022/09/16 00:53:22;;;;;;;;;2.33;2.33;;;;;19.89;58.74;97455.88;4960235;28;102822;-91
2022/09/16 00:55:50;;;;;;;;;2.67;1.67;;;;;19.89;58.58;97456.69;4960473;28;104190;-91
2022/09/16 00:58:37;;;;;;;;;1.67;1.67;;;;;19.89;58.60;97462.19;4974684;28;102569;-91
2022/09/16 01:01:04;;;;;;;;;2.33;2.33;;;;;19.88;58.96;97459.72;4959565;28;102198;-91
2022/09/16 01:03:37;;;;;;;;;1.33;1.33;;;;;19.88;58.84;97454.22;4951349;28;102137;-91
2022/09/16 01:06:04;;;;;;;;;1.33;1.33;;;;;19.87;58.93;97469.03;4962393;28;108849;-91
2022/09/16 01:08:41;;;;;;;;;2.33;2.33;;;;;19.87;59.05;97474.53;4954193;28;102496;-91
2022/09/16 01:11:31;;;;;;;;;3.00;2.00;;;;;19.86;58.92;97461.91;4963133;28;102496;-92
2022/09/16 01:17:37;;;;;;;;;1.67;1.67;;;;;19.88;58.73;97470.69;4954121;28;107311;-91
2022/09/16 01:20:35;;;;;;;;;1.67;1.67;;;;;19.87;58.73;97458.06;4974915;28;102103;-91
2022/09/16 01:23:35;;;;;;;;;2.33;1.67;;;;;19.87;58.55;97463.56;4965784;28;102308;-90
2022/09/16 01:26:40;;;;;;;;;2.33;1.67;;;;;19.88;58.62;97459.72;4954219;28;102628;-90
2022/09/16 01:29:22;;;;;;;;;4.33;2.67;;;;;19.87;58.78;97466.31;4959824;28;108678;-90
2022/09/16 01:32:17;;;;;;;;;2.00;2.00;;;;;19.86;58.77;97467.41;4968851;28;102595;-90
2022/09/16 01:35:01;;;;;;;;;1.67;1.00;;;;;19.85;58.78;97469.34;4950097;28;102581;-91
2022/09/16 01:37:37;;;;;;;;;1.33;1.33;;;;;19.85;58.82;97477.59;4963752;28;103079;-91
2022/09/16 01:40:10;;;;;;;;;3.33;2.33;;;;;19.84;58.62;97461.41;4960278;28;108791;-91
2022/09/16 01:42:42;;;;;;;;;2.33;2.33;;;;;19.83;58.85;97457.84;4960400;28;102246;-91
2022/09/16 01:45:19;;;;;;;;;2.33;2.33;;;;;19.78;58.93;97449.66;4957379;28;102457;-90
2022/09/16 01:48:09;;;;;;;;;1.67;1.67;;;;;19.83;58.86;97462.50;4953081;28;104891;-91
2022/09/16 01:50:45;;;;;;;;;1.33;1.33;;;;;19.81;59.09;97460.03;4962547;28;109021;-91
2022/09/16 01:53:24;;;;;;;;;2.33;2.33;;;;;19.81;58.86;97453.75;4936253;28;102098;-91
2022/09/16 01:55:52;;;;;;;;;0.67;0.67;;;;;19.82;58.81;97452.63;4960142;28;106087;-91
2022/09/16 01:58:25;;;;;;;;;2.33;2.00;;;;;19.81;58.81;97453.75;4963263;28;102474;-91
2022/09/16 02:00:54;;;;;;;;;3.67;3.00;;;;;19.82;58.89;97460.84;4962411;28;104109;-91
2022/09/16 02:03:32;;;;;;;;;1.67;1.00;;;;;19.82;58.67;97463.59;4961222;28;102402;-92
2022/09/16 02:06:02;;;;;;;;;1.67;1.67;;;;;19.81;58.87;97457.28;4939796;28;102645;-91
2022/09/16 02:08:56;;;;;;;;;2.00;2.00;;;;;19.82;58.70;97461.69;4947521;28;102570;-91
2022/09/16 02:11:23;;;;;;;;;1.67;1.67;;;;;19.82;58.86;97460.84;4919872;28;108844;-91
2022/09/16 02:13:57;;;;;;;;;1.67;1.67;;;;;19.81;58.90;97460.03;4956596;28;102614;-91
2022/09/16 02:16:33;;;;;;;;;1.67;1.67;;;;;19.81;58.64;97460.03;4965869;28;102624;-91
2022/09/16 02:19:01;;;;;;;;;2.00;2.00;;;;;19.81;58.64;97462.00;4963279;28;102426;-92
2022/09/16 02:21:28;;;;;;;;;1.67;1.67;;;;;19.82;58.91;97463.59;4943775;28;104219;-91
2022/09/16 02:23:58;;;;;;;;;2.00;2.00;;;;;19.80;58.87;97458.41;4939889;28;102258;-90
2022/09/16 02:26:28;;;;;;;;;2.00;2.00;;;;;19.79;58.56;97472.41;4956420;28;102300;-91
2022/09/16 02:28:55;;;;;;;;;1.67;1.67;;;;;19.78;58.89;97474.34;4954039;28;102264;-90
2022/09/16 02:31:26;;;;;;;;;1.67;1.67;;;;;19.76;58.99;97473.81;4957137;28;104875;-91
2022/09/16 02:33:56;;;;;;;;;2.00;2.00;;;;;19.79;58.65;97475.16;4952122;28;102251;-92
2022/09/16 02:36:24;;;;;;;;;1.67;1.00;;;;;19.78;58.56;97479.00;4955956;28;102360;-90
2022/09/16 02:38:54;;;;;;;;;1.67;1.67;;;;;19.79;58.52;97480.66;4953993;28;102199;-91
2022/09/16 02:41:21;;;;;;;;;1.67;1.67;;;;;19.78;59.02;97482.56;4961511;28;104068;-91
2022/09/16 02:43:48;;;;;;;;;1.67;1.67;;;;;19.79;58.47;97477.91;4951290;28;102179;-91
2022/09/16 02:46:24;;;;;;;;;1.00;1.00;;;;;19.80;58.71;97482.28;4966267;28;102619;-91
2022/09/16 02:49:04;;;;;;;;;1.33;1.33;;;;;19.79;58.71;97477.91;4967971;28;102506;-91
2022/09/16 02:51:43;;;;;;;;;1.67;1.67;;;;;19.79;58.64;97478.72;4954710;28;103995;-91
2022/09/16 02:54:56;;;;;;;;;1.67;1.67;;;;;19.79;58.47;97486.13;4956460;28;102272;-91
2022/09/16 02:57:23;;;;;;;;;1.33;1.33;;;;;19.78;58.74;97476.25;4907853;28;102239;-91
2022/09/16 02:59:50;;;;;;;;;1.67;1.67;;;;;19.78;58.92;97481.75;4922968;28;102514;-92
2022/09/16 03:02:17;;;;;;;;;1.00;1.00;;;;;19.77;59.03;97469.16;4929333;28;104066;-92
2022/09/16 03:04:44;;;;;;;;;2.67;2.67;;;;;19.76;58.66;97473.81;4942526;28;102507;-91
2022/09/16 03:07:11;;;;;;;;;1.67;1.67;;;;;19.76;58.42;97462.84;4923672;28;102332;-91
2022/09/16 03:09:41;;;;;;;;;1.33;1.33;;;;;19.74;58.60;97469.72;4929952;28;102616;-91
2022/09/16 03:12:32;;;;;;;;;1.67;1.67;;;;;19.74;58.63;97462.31;4934117;28;104055;-90
2022/09/16 03:15:17;;;;;;;;;1.67;1.67;;;;;19.74;58.93;97458.75;4942041;28;102112;-91
2022/09/16 03:18:01;;;;;;;;;1.67;1.67;;;;;19.73;58.87;97459.84;4945463;28;102497;-91
2022/09/16 03:20:30;;;;;;;;;2.67;1.67;;;;;19.73;58.94;97468.88;4941398;28;102592;-91
2022/09/16 03:23:06;;;;;;;;;1.00;1.00;;;;;19.73;58.92;97462.59;4931511;28;104181;-91
2022/09/16 03:26:08;;;;;;;;;1.67;1.67;;;;;19.73;58.95;97470.81;4943394;28;102525;-90
2022/09/16 03:28:45;;;;;;;;;2.33;2.33;;;;;19.73;58.56;97468.06;4932493;28;102513;-91
2022/09/16 03:31:18;;;;;;;;;2.00;2.00;;;;;19.73;58.54;97474.38;4928327;28;102583;-91
2022/09/16 03:34:01;;;;;;;;;2.00;2.00;;;;;19.75;58.66;97482.31;4941043;28;104266;-91
2022/09/16 03:36:32;;;;;;;;;1.00;1.00;;;;;19.74;58.49;97480.69;4927604;28;102501;-91
2022/09/16 03:38:59;;;;;;;;;2.00;2.00;;;;;19.73;58.79;97485.34;4931262;28;102462;-91
2022/09/16 03:41:30;;;;;;;;;2.00;2.00;;;;;19.72;58.59;97474.69;4946531;28;102410;-91
2022/09/16 03:43:57;;;;;;;;;2.00;2.00;;;;;19.73;58.46;97479.03;4955061;28;104259;-91
2022/09/16 03:46:29;;;;;;;;;1.67;1.67;;;;;19.69;58.54;97473.31;4947476;28;102141;-91
2022/09/16 03:48:56;;;;;;;;;2.67;2.67;;;;;19.69;58.67;97480.72;4938456;28;102315;-91
2022/09/16 03:51:24;;;;;;;;;2.33;2.33;;;;;19.68;58.45;97470.88;4944339;28;102056;-91
2022/09/16 03:53:51;;;;;;;;;2.00;2.00;;;;;19.67;59.06;97469.25;4945629;28;104181;-91
2022/09/16 03:56:18;;;;;;;;;2.00;2.00;;;;;19.66;58.67;97473.06;4946301;28;102451;-91
2022/09/16 03:58:48;;;;;;;;;2.00;1.67;;;;;19.66;58.74;97473.06;4963188;28;102223;-91
2022/09/16 04:01:15;;;;;;;;;3.00;2.00;;;;;19.67;58.85;97470.06;4962890;28;102396;-91
2022/09/16 04:03:42;;;;;;;;;2.00;2.00;;;;;19.68;58.50;97477.16;4962667;28;104222;-91
2022/09/16 04:06:09;;;;;;;;;2.00;2.00;;;;;19.68;58.63;97476.38;4960645;28;102380;-91
2022/09/16 04:08:38;;;;;;;;;2.00;1.00;;;;;19.68;58.90;97481.84;4964057;28;102181;-91
2022/09/16 04:11:05;;;;;;;;;2.67;2.00;;;;;19.67;58.87;97474.72;4978519;28;102562;-90
2022/09/16 04:13:33;;;;;;;;;2.00;2.00;;;;;19.66;58.83;97475.81;4963876;28;103980;-90
2022/09/16 04:16:01;;;;;;;;;2.00;2.00;;;;;19.68;58.66;97479.91;4944409;28;102385;-90
2022/09/16 04:18:29;;;;;;;;;2.00;2.00;;;;;19.67;58.69;97486.50;4958847;28;102220;-90
2022/09/16 04:20:57;;;;;;;;;1.33;1.33;;;;;19.67;58.64;97485.69;4964606;28;102347;-90
2022/09/16 04:23:25;;;;;;;;;1.67;1.67;;;;;19.66;58.97;97476.66;4955287;28;104372;-91
2022/09/16 04:25:59;;;;;;;;;2.00;2.00;;;;;19.65;58.74;97472.25;4953485;28;102216;-91
2022/09/16 04:28:26;;;;;;;;;2.00;2.00;;;;;19.66;58.56;97470.34;4965375;28;102500;-90
2022/09/16 04:30:53;;;;;;;;;1.00;1.00;;;;;19.64;58.72;97469.78;4964849;28;102556;-91
2022/09/16 04:33:20;;;;;;;;;2.00;2.00;;;;;19.65;58.58;97472.25;4958528;28;104078;-91
2022/09/16 04:35:47;;;;;;;;;4.00;3.00;;;;;19.64;58.66;97469.78;4966440;28;102228;-91
2022/09/16 04:38:14;;;;;;;;;2.00;2.00;;;;;19.62;58.79;97480.25;4966612;28;102572;-91
2022/09/16 04:40:41;;;;;;;;;2.00;2.00;;;;;19.59;58.86;97463.25;4953156;28;103151;-92
2022/09/16 04:43:08;;;;;;;;;3.33;2.33;;;;;19.59;58.68;97452.28;4963862;28;104253;-90
2022/09/16 04:45:35;;;;;;;;;2.33;2.00;;;;;19.62;58.89;97463.78;4959275;28;102312;-91
2022/09/16 04:48:02;;;;;;;;;3.33;2.00;;;;;19.60;58.80;97464.88;4958460;28;102441;-91
2022/09/16 04:50:29;;;;;;;;;2.67;2.67;;;;;19.62;58.53;97466.53;4957178;28;104140;-91
2022/09/16 04:52:56;;;;;;;;;1.00;1.00;;;;;19.61;58.59;97465.72;4949369;28;104159;-91
2022/09/16 04:55:23;;;;;;;;;2.00;2.00;;;;;19.63;58.67;97469.00;4958774;28;102507;-91
2022/09/16 04:57:51;;;;;;;;;1.33;1.33;;;;;19.63;58.60;97469.00;4959028;28;102665;-91
2022/09/16 05:00:18;;;;;;;;;1.67;1.67;;;;;19.63;58.58;97462.69;4964734;28;102237;-91
2022/09/16 05:02:45;;;;;;;;;2.00;2.00;;;;;19.62;58.66;97461.88;4952682;28;104215;-91
2022/09/16 05:05:12;;;;;;;;;3.00;2.00;;;;;19.62;58.49;97466.53;4963320;28;102411;-90
2022/09/16 05:07:39;;;;;;;;;3.00;2.67;;;;;19.62;58.47;97466.53;4967577;28;102163;-91
2022/09/16 05:10:06;;;;;;;;;1.67;1.67;;;;;19.59;58.69;97468.72;4962265;28;102466;-91
2022/09/16 05:12:33;;;;;;;;;1.33;1.33;;;;;19.60;58.42;97467.63;4951908;28;104103;-91
2022/09/16 05:15:00;;;;;;;;;4.00;2.00;;;;;19.60;58.71;97469.56;4962089;28;102188;-91
2022/09/16 05:17:30;;;;;;;;;2.33;2.33;;;;;19.59;58.67;97479.69;4960099;28;103913;-90
2022/09/16 05:20:16;;;;;;;;;2.33;2.00;;;;;19.58;58.49;97467.13;4961608;28;102519;-91
2022/09/16 05:22:43;;;;;;;;;2.67;2.00;;;;;19.58;58.57;97472.59;4964440;28;104247;-91
2022/09/16 05:25:10;;;;;;;;;2.00;2.00;;;;;19.58;58.57;97483.56;4957384;28;102294;-91
2022/09/16 05:27:37;;;;;;;;;2.00;2.00;;;;;19.58;58.43;97472.59;4956277;28;102490;-90
2022/09/16 05:30:05;;;;;;;;;2.00;2.00;;;;;19.58;58.38;97483.56;4967238;28;102589;-91
2022/09/16 05:32:32;;;;;;;;;1.00;1.00;;;;;19.59;58.58;97481.63;4958632;28;104064;-91
2022/09/16 05:34:59;;;;;;;;;1.67;1.67;;;;;19.58;58.46;97478.09;4964167;28;102092;-91
2022/09/16 05:37:26;;;;;;;;;1.67;1.67;;;;;19.59;58.17;97487.09;4956829;28;102433;-91
2022/09/16 05:39:54;;;;;;;;;2.33;1.67;;;;;19.59;58.56;97490.66;4955108;28;102447;-90
2022/09/16 05:42:21;;;;;;;;;1.67;1.67;;;;;19.61;58.44;97495.88;4957856;28;104289;-91
2022/09/16 05:44:48;;;;;;;;;2.00;2.00;;;;;19.59;58.41;97496.16;4949896;28;102257;-91
2022/09/16 05:47:15;;;;;;;;;2.00;2.00;;;;;19.59;58.40;97493.41;4944170;28;102354;-91
2022/09/16 05:49:42;;;;;;;;;1.00;1.00;;;;;19.59;58.20;97498.91;4970644;28;105534;-90
2022/09/16 05:52:09;;;;;;;;;1.33;1.00;;;;;19.57;58.42;97487.41;4949624;28;109203;-91
2022/09/16 05:54:35;;;;;;;;;1.67;1.33;;;;;19.58;58.31;97491.78;4954183;28;102156;-91
2022/09/16 05:57:03;;;;;;;;;2.33;2.33;;;;;19.58;58.64;97489.06;4960822;28;102264;-91
2022/09/16 05:59:32;;;;;;;;;2.33;2.00;;;;;19.58;58.34;97494.53;4952964;28;105931;-91
2022/09/16 06:01:59;;;;;;;;;2.00;1.00;;;;;19.57;58.61;97498.38;4965444;28;104282;-91
2022/09/16 06:04:27;;;;;;;;;2.00;1.00;;;;;19.57;58.30;97492.06;4961644;28;102204;-91
2022/09/16 06:06:53;;;;;;;;;2.00;2.00;;;;;19.56;58.32;97494.00;4960649;28;102019;-91
2022/09/16 06:09:22;;;;;;;;;2.00;1.33;;;;;19.58;58.47;97493.72;4946803;28;102134;-90
2022/09/16 06:11:50;;;;;;;;;2.67;2.00;;;;;19.57;58.20;97481.09;4954269;28;104013;-91
2022/09/16 06:14:18;;;;;;;;;3.00;2.00;;;;;19.58;58.34;97489.06;4956943;28;102560;-91
2022/09/16 06:16:45;;;;;;;;;2.00;2.00;;;;;19.59;58.31;97474.22;4955588;28;102131;-91
2022/09/16 06:19:14;;;;;;;;;2.00;1.33;;;;;19.60;58.25;97464.88;4952547;28;102289;-91
2022/09/16 06:21:42;;;;;;;;;3.00;2.33;;;;;19.59;58.36;97460.50;4964564;28;108890;-91
2022/09/16 06:24:10;;;;;;;;;3.00;2.00;;;;;19.62;58.37;97472.84;4962690;28;102574;-90
2022/09/16 06:26:37;;;;;;;;;1.33;1.33;;;;;19.63;58.16;97470.91;4954196;28;103083;-91
2022/09/16 06:29:05;;;;;;;;;2.33;2.00;;;;;19.64;58.18;97486.25;4960647;28;102580;-91
2022/09/16 06:31:32;;;;;;;;;2.00;2.00;;;;;19.63;58.21;97495.59;4964013;28;104026;-91
2022/09/16 06:33:59;;;;;;;;;1.00;1.00;;;;;19.63;58.15;97490.13;4968656;28;102297;-91
2022/09/16 06:36:36;;;;;;;;;1.67;1.67;;;;;19.64;58.32;97492.56;4953453;28;102096;-92
2022/09/16 06:39:10;;;;;;;;;2.00;2.00;;;;;19.62;58.16;97488.47;4958909;28;102579;-91
2022/09/16 06:41:37;;;;;;;;;2.00;2.00;;;;;19.64;58.13;97489.00;4948231;28;104090;-91
2022/09/16 06:44:04;;;;;;;;;2.67;2.67;;;;;19.63;58.12;97490.13;4960833;28;102479;-91
2022/09/16 06:46:31;;;;;;;;;2.00;2.00;;;;;19.63;58.07;97490.13;4960865;28;102578;-91
2022/09/16 06:48:58;;;;;;;;;1.00;1.00;;;;;19.62;58.16;97493.97;4956805;28;102484;-91
2022/09/16 06:51:31;;;;;;;;;2.00;2.00;;;;;19.63;58.19;97488.19;4951046;28;104281;-91
2022/09/16 06:53:59;;;;;;;;;2.00;2.00;;;;;19.65;57.97;97493.38;4962202;28;102500;-91
2022/09/16 06:56:26;;;;;;;;;2.00;2.00;;;;;19.65;58.32;97493.38;4948190;28;102138;-91
2022/09/16 06:58:54;;;;;;;;;2.33;2.00;;;;;19.62;58.10;97488.47;4972512;28;104898;-91
2022/09/16 07:01:23;;;;;;;;;4.00;2.00;;;;;19.65;58.27;97482.41;4953949;28;104047;-91
2022/09/16 07:03:51;;;;;;;;;2.33;2.00;;;;;19.66;58.18;97478.56;4963822;28;102381;-91
2022/09/16 07:06:19;;;;;;;;;2.00;2.00;;;;;19.67;57.89;97491.19;4957546;28;104815;-91
2022/09/16 07:08:46;;;;;;;;;2.00;2.00;;;;;19.68;58.00;97499.09;4965586;28;102384;-91
2022/09/16 07:11:15;;;;;;;;;1.33;1.33;;;;;19.68;57.76;97499.09;4952996;28;103498;-91
2022/09/16 07:13:42;;;;;;;;;1.00;1.00;;;;;19.68;57.99;97498.31;4947840;28;102412;-91
2022/09/16 07:16:11;;;;;;;;;1.33;1.33;;;;;19.70;58.02;97496.91;4957416;28;103315;-91
2022/09/16 07:18:40;;;;;;;;;2.67;2.67;;;;;19.70;57.86;97501.56;4956854;28;102840;-91
2022/09/16 07:21:12;;;;;;;;;1.00;1.00;;;;;19.72;58.05;97504.84;4955135;28;104380;-91
2022/09/16 07:23:39;;;;;;;;;2.00;2.00;;;;;19.70;57.81;97515.28;4950504;28;102134;-90
2022/09/16 07:26:12;;;;;;;;;1.67;1.67;;;;;19.73;57.91;97511.94;4956074;28;102383;-90
2022/09/16 07:28:40;;;;;;;;;1.33;1.00;;;;;19.73;57.86;97511.94;4962537;28;102786;-91
2022/09/16 07:31:08;;;;;;;;;1.33;1.00;;;;;19.74;57.99;97519.09;4954634;28;104111;-91
2022/09/16 07:33:39;;;;;;;;;2.00;2.00;;;;;19.74;57.90;97510.84;4951272;28;102350;-90
2022/09/16 07:36:07;;;;;;;;;2.00;2.00;;;;;19.74;58.08;97519.91;4962521;28;102465;-91
2022/09/16 07:38:35;;;;;;;;;2.00;1.00;;;;;19.73;58.16;97496.31;4962344;28;102899;-91
2022/09/16 07:41:23;;;;;;;;;2.00;2.00;;;;;19.73;57.96;97504.53;4939126;28;103996;-90
2022/09/16 07:43:50;;;;;;;;;1.00;1.00;;;;;19.72;58.08;97511.16;4953460;28;102308;-90
2022/09/16 07:46:18;;;;;;;;;1.67;1.67;;;;;19.71;57.94;97520.50;4962363;28;102094;-91
2022/09/16 07:48:46;;;;;;;;;1.67;0.67;;;;;19.72;57.88;97515.81;4953520;28;102160;-91
2022/09/16 07:51:15;;;;;;;;;1.33;1.33;;;;;19.72;58.02;97521.31;4967356;28;104014;-91
2022/09/16 07:53:42;;;;;;;;;1.00;1.00;;;;;19.72;58.13;97522.13;4970586;28;102355;-91
2022/09/16 07:56:17;;;;;;;;;2.00;2.00;;;;;19.71;58.01;97520.50;4959136;28;103881;-91
2022/09/16 07:58:44;;;;;;;;;1.67;1.67;;;;;19.73;57.88;97528.41;4957267;28;105035;-90
2022/09/16 08:01:12;;;;;;;;;1.67;1.67;;;;;19.71;58.21;97525.97;4953937;28;104115;-91
2022/09/16 08:03:39;;;;;;;;;2.00;2.00;;;;;19.73;57.88;97520.19;4960632;28;102815;-91
2022/09/16 08:06:08;;;;;;;;;2.67;2.00;;;;;19.70;58.26;97516.09;4962648;28;102659;-91
2022/09/16 08:08:35;;;;;;;;;2.67;2.67;;;;;19.70;58.09;97516.09;4947811;28;102282;-91
2022/09/16 08:11:02;;;;;;;;;2.00;2.00;;;;;19.70;58.12;97513.38;4958190;28;104186;-91
2022/09/16 08:13:31;;;;;;;;;1.67;1.67;;;;;19.71;58.15;97517.75;4949702;28;102535;-91
2022/09/16 08:16:06;;;;;;;;;2.33;1.33;;;;;19.72;58.15;97524.06;4957695;28;102168;-91
2022/09/16 08:18:33;;;;;;;;;2.00;2.00;;;;;19.72;58.26;97511.16;4949057;28;102363;-91
2022/09/16 08:21:14;;;;;;;;;1.67;1.67;;;;;19.73;58.21;97512.78;4952506;28;105770;-91
2022/09/16 08:23:41;;;;;;;;;1.67;1.33;;;;;19.73;58.10;97514.69;4951135;28;102054;-90
2022/09/16 08:26:09;;;;;;;;;1.00;1.00;;;;;19.74;58.08;97510.84;4952390;28;102389;-91
2022/09/16 08:28:37;;;;;;;;;2.00;1.67;;;;;19.74;58.25;97519.09;4947156;28;102435;-91
2022/09/16 08:31:24;;;;;;;;;2.00;1.67;;;;;19.75;58.05;97515.25;4960074;28;110409;-91
2022/09/16 08:33:51;;;;;;;;;2.00;2.00;;;;;19.75;58.02;97518.00;4937717;28;102311;-91
2022/09/16 08:36:20;;;;;;;;;2.33;1.67;;;;;19.74;58.09;97516.34;4972415;28;102127;-91
2022/09/16 08:38:48;;;;;;;;;4.00;2.00;;;;;19.75;57.87;97521.56;4956173;28;102402;-91
2022/09/16 08:41:29;;;;;;;;;2.00;2.00;;;;;19.75;58.16;97524.28;4966665;28;104059;-90
2022/09/16 08:44:18;;;;;;;;;1.33;1.33;;;;;19.76;57.92;97527.88;4958401;28;102414;-91
2022/09/16 08:47:10;;;;;;;;;1.67;1.67;;;;;19.77;58.04;97524.03;4960396;28;102366;-91
2022/09/16 08:49:46;;;;;;;;;2.00;2.00;;;;;19.77;58.10;97521.28;4924272;28;102579;-91
2022/09/16 08:52:16;;;;;;;;;1.67;1.67;;;;;19.78;58.18;97525.63;4956649;28;108806;-91
2022/09/16 08:54:47;;;;;;;;;1.00;1.00;;;;;19.78;57.55;97514.66;4962462;28;102845;-91
2022/09/16 08:57:16;;;;;;;;;1.67;1.67;;;;;19.77;57.97;97521.28;4968825;28;102166;-91
2022/09/16 09:00:03;;;;;;;;;1.00;1.00;;;;;19.79;58.03;97513.56;4948200;28;102598;-92
2022/09/16 09:02:38;;;;;;;;;2.33;2.00;;;;;19.80;57.79;97517.94;4960984;28;108748;-91
2022/09/16 09:05:32;;;;;;;;;1.00;1.00;;;;;19.79;57.73;97517.13;4959424;28;102618;-91
2022/09/16 09:08:14;;;;;;;;;0.67;0.67;;;;;19.81;57.77;97503.13;4957822;28;102278;-91
2022/09/16 09:10:51;;;;;;;;;3.00;2.00;;;;;19.81;57.88;97514.13;4971779;28;102416;-91
2022/09/16 09:13:42;;;;;;;;;2.00;2.00;;;;;19.80;57.74;97507.81;4954722;28;108658;-91
2022/09/16 09:16:16;;;;;;;;;2.00;2.00;;;;;19.81;57.84;97514.91;4972287;28;102711;-91
2022/09/16 09:18:47;;;;;;;;;2.00;1.67;;;;;19.80;58.21;97520.69;4955603;28;102487;-90
2022/09/16 09:21:18;;;;;;;;;2.00;2.00;;;;;19.80;57.71;97524.25;4969965;28;102260;-91
2022/09/16 09:23:51;;;;;;;;;3.00;2.00;;;;;19.80;57.69;97517.94;4965634;28;109115;-91
2022/09/16 09:26:48;;;;;;;;;1.67;1.67;;;;;19.81;58.15;97519.59;4946253;28;102587;-90
2022/09/16 09:29:24;;;;;;;;;1.00;1.00;;;;;19.80;58.09;97517.94;4945864;28;102257;-91
2022/09/16 09:32:05;;;;;;;;;2.00;1.00;;;;;19.81;57.79;97516.84;4949682;28;102427;-91
2022/09/16 09:34:34;;;;;;;;;1.00;1.00;;;;;19.81;57.95;97509.41;4969258;28;104408;-91
2022/09/16 09:37:17;;;;;;;;;1.00;1.00;;;;;19.81;57.74;97508.63;4956422;28;102500;-91
2022/09/16 09:40:15;;;;;;;;;2.00;2.00;;;;;19.82;57.81;97510.25;4961765;28;102448;-91
2022/09/16 09:43:04;;;;;;;;;2.00;1.00;;;;;19.81;57.79;97514.13;4936480;28;102433;-91
2022/09/16 09:45:42;;;;;;;;;2.00;2.00;;;;;19.81;58.20;97514.13;4950699;28;108841;-91
2022/09/16 09:48:44;;;;;;;;;1.67;1.67;;;;;19.80;57.88;97521.50;4949094;28;102232;-91
2022/09/16 09:51:31;;;;;;;;;2.00;2.00;;;;;19.82;58.04;97515.72;4953182;28;102266;-91
2022/09/16 09:54:05;;;;;;;;;1.67;1.67;;;;;19.81;57.92;97525.09;4960344;28;103311;-91
2022/09/16 09:56:39;;;;;;;;;3.67;1.67;;;;;19.79;58.08;97525.34;4956380;28;104366;-91
2022/09/16 09:59:27;;;;;;;;;1.33;1.33;;;;;19.81;57.86;97527.81;4958860;28;102326;-91
2022/09/16 10:01:55;;;;;;;;;1.00;1.00;;;;;19.80;57.80;97532.50;4944466;28;102576;-92
2022/09/16 10:04:22;;;;;;;;;1.00;1.00;;;;;19.80;57.83;97524.25;4966126;28;102456;-92
2022/09/16 10:06:50;;;;;;;;;2.00;1.00;;;;;19.78;57.71;97525.63;4962395;28;104086;-90
2022/09/16 10:09:17;;;;;;;;;0.67;0.67;;;;;19.79;57.77;97521.78;4960325;28;102612;-91
2022/09/16 10:11:54;;;;;;;;;1.67;1.67;;;;;19.80;58.08;97509.72;4961495;28;102186;-91
2022/09/16 10:14:28;;;;;;;;;1.67;1.67;;;;;19.80;58.08;97517.94;4966748;28;102589;-91
2022/09/16 10:16:55;;;;;;;;;1.67;1.67;;;;;19.81;58.16;97514.13;4953231;28;104078;-91
2022/09/16 10:19:26;;;;;;;;;3.00;2.00;;;;;19.80;57.99;97509.72;4941053;28;102536;-92
2022/09/16 10:21:55;;;;;;;;;2.33;1.67;;;;;19.81;57.60;97492.97;4965555;28;102241;-91
2022/09/16 10:24:30;;;;;;;;;2.67;1.67;;;;;19.82;57.53;97502.84;4957963;28;102791;-91
2022/09/16 10:26:58;;;;;;;;;1.67;1.67;;;;;19.82;58.04;97500.09;4964556;28;104389;-91
2022/09/16 10:29:25;;;;;;;;;2.00;1.67;;;;;19.83;57.92;97500.91;4953608;28;102432;-91
2022/09/16 10:31:52;;;;;;;;;2.00;2.00;;;;;19.83;57.62;97490.75;4959974;28;102200;-91
2022/09/16 10:34:38;;;;;;;;;2.00;1.67;;;;;19.85;57.74;97493.22;4957198;28;102541;-91
2022/09/16 10:37:11;;;;;;;;;2.33;1.33;;;;;19.85;57.51;97493.22;4971547;28;104163;-91
2022/09/16 10:39:41;;;;;;;;;2.00;2.00;;;;;19.85;57.93;97498.72;4958377;28;102546;-92
2022/09/16 10:42:21;;;;;;;;;1.00;1.00;;;;;19.83;57.52;97495.41;4963967;28;102219;-91
2022/09/16 10:44:50;;;;;;;;;1.67;1.00;;;;;19.85;57.78;97495.97;4945419;28;102647;-91
2022/09/16 10:47:28;;;;;;;;;1.67;1.00;;;;;19.84;57.84;97492.41;4964067;28;104096;-91
2022/09/16 10:50:03;;;;;;;;;2.00;2.00;;;;;19.85;57.44;97498.72;4961885;28;102360;-91
2022/09/16 10:52:39;;;;;;;;;1.67;1.00;;;;;19.85;57.60;97499.53;4955229;28;102142;-91
2022/09/16 10:55:29;;;;;;;;;0.67;0.67;;;;;19.84;57.91;97514.34;4962356;28;102404;-92
2022/09/16 10:58:14;;;;;;;;;2.00;2.00;;;;;19.84;57.82;97508.88;4970336;28;108657;-91
2022/09/16 11:00:53;;;;;;;;;2.00;1.33;;;;;19.85;57.76;97498.72;4961809;28;102477;-91
2022/09/16 11:03:55;;;;;;;;;1.33;1.33;;;;;19.86;57.69;97486.59;4966283;28;102359;-91
2022/09/16 11:06:46;;;;;;;;;1.33;1.33;;;;;19.86;57.85;97492.09;4957382;28;103106;-91
2022/09/16 11:09:29;;;;;;;;;1.33;1.33;;;;;19.83;57.19;97488.00;4966283;28;109225;-91
2022/09/16 11:12:17;;;;;;;;;1.67;1.67;;;;;19.86;57.85;97494.84;4951712;28;102522;-91
2022/09/16 11:15:10;;;;;;;;;1.67;1.67;;;;;19.87;57.66;97493.75;4967992;28;102172;-91
2022/09/16 11:17:46;;;;;;;;;0.67;0.67;;;;;19.88;57.76;97493.47;4958808;28;102149;-91
2022/09/16 11:20:28;;;;;;;;;1.67;1.67;;;;;19.88;57.83;97492.63;4968224;28;104083;-91
2022/09/16 11:23:16;;;;;;;;;2.00;2.00;;;;;19.88;57.77;97492.63;4964322;28;102263;-91
2022/09/16 11:26:21;;;;;;;;;2.00;2.00;;;;;19.91;57.80;97486.56;4968278;28;102375;-91
2022/09/16 11:29:13;;;;;;;;;1.00;1.00;;;;;19.89;57.64;97481.38;4953743;28;102517;-91
2022/09/16 11:31:50;;;;;;;;;1.67;1.00;;;;;19.90;57.46;97469.28;4952324;28;109051;-92
2022/09/16 11:35:16;;;;;;;;;2.00;2.00;;;;;19.90;57.77;97469.28;4964268;28;102893;-92
2022/09/16 11:37:50;;;;;;;;;2.00;2.00;;;;;19.90;57.68;97466.53;4882687;28;102354;-91
2022/09/16 11:40:37;;;;;;;;;1.67;1.67;;;;;19.90;57.46;97463.78;4963190;28;102494;-92
2022/09/16 11:43:26;;;;;;;;;1.33;1.33;;;;;19.90;57.55;97468.50;4957726;28;109092;-92
2022/09/16 11:46:23;;;;;;;;;1.67;1.67;;;;;19.91;57.54;97464.63;4951563;28;102499;-90
2022/09/16 11:48:53;;;;;;;;;1.67;1.67;;;;;19.93;57.59;97470.66;4954936;28;102103;-90
2022/09/16 11:51:44;;;;;;;;;1.67;1.33;;;;;19.92;57.54;97467.09;4962975;28;102114;-91
2022/09/16 11:54:28;;;;;;;;;1.67;1.67;;;;;19.94;57.38;97478.59;4944945;28;108655;-92
2022/09/16 11:56:57;;;;;;;;;2.00;2.00;;;;;19.93;57.56;97468.72;4943185;28;102150;-92